Time;durP1;ratioP1;P1;durP2;ratioP2;P2;SDS_P1;SDS_P2;PMS_P1;PMS_P2;Temp;Humidity;BMP_temperature;BMP_pressure;BME280_temperature;BME280_humidity;BME280_pressure;Samples;Min_cycle;Max_cycle;Signal;HPM_P1;HPM_P2
2021/05/18 00:00:29;;;;;;;1.90;1.20;;;;;;;;;;5094389;28;20768;-71
2021/05/18 00:02:55;;;;;;;0.70;0.50;;;;;;;;;;5112805;28;20937;-71
2021/05/18 00:05:22;;;;;;;1.83;1.00;;;;;;;;;;5112370;28;20464;-71
2021/05/18 00:07:58;;;;;;;1.63;0.70;;;;;;;;;;5078046;28;20887;-71
2021/05/18 00:13:10;;;;;;;1.20;0.73;;;;;;;;;;5108405;28;20925;-69
2021/05/18 00:15:36;;;;;;;1.23;1.13;;;;;;;;;;5092349;28;20431;-71
2021/05/18 00:18:02;;;;;;;3.50;1.60;;;;;;;;;;5095129;28;20390;-72
2021/05/18 00:20:28;;;;;;;0.83;0.53;;;;;;;;;;5090426;28;20380;-70
2021/05/18 00:22:54;;;;;;;3.67;1.10;;;;;;;;;;5090847;28;20397;-70
2021/05/18 00:25:20;;;;;;;1.40;1.03;;;;;;;;;;5098914;28;20428;-69
2021/05/18 00:27:47;;;;;;;1.40;1.30;;;;;;;;;;5111214;28;20412;-71
2021/05/18 00:30:13;;;;;;;5.57;1.67;;;;;;;;;;5110171;28;20430;-70
2021/05/18 00:32:39;;;;;;;1.03;0.80;;;;;;;;;;5111785;28;20988;-70
2021/05/18 00:35:08;;;;;;;1.10;0.80;;;;;;;;;;5111229;28;20443;-72
2021/05/18 00:37:33;;;;;;;4.83;0.83;;;;;;;;;;5103554;28;20447;-71
2021/05/18 00:39:59;;;;;;;50.23;33.40;;;;;;;;;;5090133;28;20408;-73
2021/05/18 00:42:25;;;;;;;2.50;0.80;;;;;;;;;;5090987;28;20406;-70
2021/05/18 00:44:53;;;;;;;24.93;13.97;;;;;;;;;;5090876;28;20420;-69
2021/05/18 00:47:19;;;;;;;2.23;2.03;;;;;;;;;;5096165;28;20530;-71
2021/05/18 00:49:45;;;;;;;52.73;26.40;;;;;;;;;;5102747;28;20420;-70
2021/05/18 00:52:12;;;;;;;75.18;45.15;;;;;;;;;;5095116;28;20393;-71
2021/05/18 00:54:54;;;;;;;381.05;104.88;;;;;;;;;;5106552;28;20577;-69
2021/05/18 01:00:05;;;;;;;299.02;136.95;;;;;;;;;;5093767;28;20179;-71
2021/05/18 01:02:31;;;;;;;262.05;125.70;;;;;;;;;;5086677;28;20626;-71
2021/05/18 01:05:07;;;;;;;236.93;102.47;;;;;;;;;;5114279;28;20339;-72
2021/05/18 01:07:38;;;;;;;208.57;86.05;;;;;;;;;;5114549;28;20267;-70
2021/05/18 01:10:04;;;;;;;13.53;8.90;;;;;;;;;;5109286;28;20194;-71
2021/05/18 01:12:31;;;;;;;2.43;1.17;;;;;;;;;;5094308;28;20777;-72
2021/05/18 01:14:57;;;;;;;1.33;0.90;;;;;;;;;;5105397;28;20435;-71
2021/05/18 01:17:22;;;;;;;1.13;0.97;;;;;;;;;;5095020;28;20393;-72
2021/05/18 01:19:48;;;;;;;3.20;1.03;;;;;;;;;;5074741;28;20413;-70
2021/05/18 01:22:14;;;;;;;2.23;0.90;;;;;;;;;;5093945;28;20483;-71
2021/05/18 01:24:41;;;;;;;1.13;0.93;;;;;;;;;;5093943;28;20425;-71
2021/05/18 01:27:07;;;;;;;1.90;1.60;;;;;;;;;;5106029;28;20452;-71
2021/05/18 01:29:33;;;;;;;1.27;1.03;;;;;;;;;;5113342;28;20400;-73
2021/05/18 01:31:59;;;;;;;1.53;0.80;;;;;;;;;;5113818;28;20394;-71
2021/05/18 01:34:25;;;;;;;3.77;2.10;;;;;;;;;;5114176;28;20440;-71
2021/05/18 01:36:52;;;;;;;0.70;0.60;;;;;;;;;;5114241;28;20450;-71
2021/05/18 01:44:29;;;;;;;2.13;1.37;;;;;;;;;;5094095;28;20431;-71
2021/05/18 01:46:54;;;;;;;1.20;0.80;;;;;;;;;;5093267;28;20501;-70
2021/05/18 01:49:21;;;;;;;3.27;1.43;;;;;;;;;;5106913;28;20825;-71
2021/05/18 01:51:48;;;;;;;1.73;1.00;;;;;;;;;;5094473;28;20417;-71
2021/05/18 01:54:16;;;;;;;2.23;1.17;;;;;;;;;;5111216;28;20429;-70
2021/05/18 01:59:10;;;;;;;0.80;0.57;;;;;;;;;;5100299;28;20421;-71
2021/05/18 02:01:36;;;;;;;4.97;1.17;;;;;;;;;;5099161;28;20440;-70
2021/05/18 02:06:41;;;;;;;6.30;2.80;;;;;;;;;;5089799;28;20996;-67
2021/05/18 02:09:07;;;;;;;3.60;2.03;;;;;;;;;;5092704;28;20413;-68
2021/05/18 02:11:32;;;;;;;1.73;1.30;;;;;;;;;;5092167;28;20409;-68
2021/05/18 02:14:03;;;;;;;3.17;1.60;;;;;;;;;;5091155;28;20401;-68
2021/05/18 02:16:33;;;;;;;3.03;1.10;;;;;;;;;;5092371;28;20392;-68
2021/05/18 02:19:12;;;;;;;1.20;0.70;;;;;;;;;;5081184;28;20412;-67
2021/05/18 02:21:56;;;;;;;1.83;1.47;;;;;;;;;;5073572;28;20511;-68
2021/05/18 02:27:06;;;;;;;1.10;0.87;;;;;;;;;;5092274;28;20991;-67
2021/05/18 02:29:32;;;;;;;1.20;1.10;;;;;;;;;;5083932;28;20889;-67
2021/05/18 02:31:58;;;;;;;1.80;1.27;;;;;;;;;;5074551;28;20906;-68
2021/05/18 02:34:24;;;;;;;2.10;1.60;;;;;;;;;;5092322;28;20503;-67
2021/05/18 02:36:50;;;;;;;1.00;0.80;;;;;;;;;;5096579;28;20621;-68
2021/05/18 02:39:16;;;;;;;10.03;0.90;;;;;;;;;;5068454;28;20945;-68
2021/05/18 02:41:42;;;;;;;2.10;1.00;;;;;;;;;;5092439;28;20371;-68
2021/05/18 02:44:15;;;;;;;1.30;0.70;;;;;;;;;;5092341;28;20397;-68
2021/05/18 02:49:25;;;;;;;1.03;0.93;;;;;;;;;;5090682;28;20408;-67
2021/05/18 02:51:52;;;;;;;2.13;0.97;;;;;;;;;;5091078;28;20439;-69
2021/05/18 02:54:23;;;;;;;2.23;1.27;;;;;;;;;;5099675;28;20444;-68
2021/05/18 02:56:54;;;;;;;0.80;0.50;;;;;;;;;;5091353;28;20496;-67
2021/05/18 02:59:20;;;;;;;1.63;0.70;;;;;;;;;;5071101;28;20402;-67
2021/05/18 03:01:51;;;;;;;3.93;1.37;;;;;;;;;;5071607;28;20398;-67
2021/05/18 03:04:17;;;;;;;1.47;1.07;;;;;;;;;;5077026;28;20833;-66
2021/05/18 03:06:43;;;;;;;2.60;1.53;;;;;;;;;;5091274;28;20825;-67
2021/05/18 03:09:12;;;;;;;1.10;0.90;;;;;;;;;;5090781;28;20459;-68
2021/05/18 03:11:39;;;;;;;1.23;1.07;;;;;;;;;;5071552;28;20438;-68
2021/05/18 03:14:06;;;;;;;1.07;0.80;;;;;;;;;;5080735;28;20471;-68
2021/05/18 03:16:32;;;;;;;1.10;0.70;;;;;;;;;;5083060;28;20401;-67
2021/05/18 03:18:58;;;;;;;1.97;0.70;;;;;;;;;;5091125;28;20415;-68
2021/05/18 03:21:24;;;;;;;0.80;0.70;;;;;;;;;;5089556;28;20484;-69
2021/05/18 03:23:50;;;;;;;12.00;2.30;;;;;;;;;;5077099;28;20442;-68
2021/05/18 03:26:16;;;;;;;1.53;0.80;;;;;;;;;;5070894;28;20454;-68
2021/05/18 03:28:42;;;;;;;1.77;0.87;;;;;;;;;;5083133;28;20397;-68
2021/05/18 03:36:45;;;;;;;1.83;1.73;;;;;;;;;;5091260;28;20385;-67
2021/05/18 03:39:11;;;;;;;1.20;0.83;;;;;;;;;;5090305;28;20372;-68
2021/05/18 03:41:57;;;;;;;1.17;0.77;;;;;;;;;;5071123;28;20442;-68
2021/05/18 03:53:04;;;;;;;1.40;1.03;;;;;;;;;;5095559;28;20850;-68
2021/05/18 04:18:08;;;;;;;1.50;1.20;;;;;;;;;;5012492;28;20442;-68
2021/05/18 04:40:31;;;;;;;3.20;1.23;;;;;;;;;;5094116;28;20451;-68
2021/05/18 04:43:22;;;;;;;1.20;1.00;;;;;;;;;;5094532;28;20404;-67
2021/05/18 04:51:01;;;;;;;3.97;1.40;;;;;;;;;;5093855;28;20401;-68
2021/05/18 04:59:26;;;;;;;1.03;0.93;;;;;;;;;;5083232;28;20787;-69
2021/05/18 05:02:09;;;;;;;1.00;0.80;;;;;;;;;;5094434;28;20784;-68
2021/05/18 05:06:14;;;;;;;3.33;0.80;;;;;;;;;;5093396;28;20452;-68
2021/05/18 05:07:28;;;;;;;1.47;0.90;;;;;;;;;;5093664;28;20465;-68
2021/05/18 05:09:54;;;;;;;0.90;0.80;;;;;;;;;;5093363;28;20427;-68
2021/05/18 05:14:51;;;;;;;0.80;0.60;;;;;;;;;;5094334;28;20426;-69
2021/05/18 05:17:17;;;;;;;0.80;0.70;;;;;;;;;;5093737;28;20430;-68
2021/05/18 05:19:44;;;;;;;1.37;1.27;;;;;;;;;;5093042;28;20425;-68
2021/05/18 05:22:10;;;;;;;2.20;2.00;;;;;;;;;;5090860;28;20425;-69
2021/05/18 05:24:37;;;;;;;1.47;0.70;;;;;;;;;;5073511;28;20444;-68
2021/05/18 05:27:03;;;;;;;3.23;0.80;;;;;;;;;;5073404;28;20464;-69
2021/05/18 05:29:29;;;;;;;5.40;1.27;;;;;;;;;;5072398;28;20406;-68
2021/05/18 05:31:56;;;;;;;1.00;0.90;;;;;;;;;;5075768;28;20424;-69
2021/05/18 05:34:22;;;;;;;1.70;1.60;;;;;;;;;;5077769;28;20496;-68
2021/05/18 05:36:48;;;;;;;1.30;0.87;;;;;;;;;;5091687;28;20843;-68
2021/05/18 05:39:23;;;;;;;0.80;0.50;;;;;;;;;;5082598;28;20485;-68
2021/05/18 05:41:49;;;;;;;1.57;1.37;;;;;;;;;;5087392;28;20415;-67
2021/05/18 05:44:15;;;;;;;0.80;0.73;;;;;;;;;;5088843;28;20392;-68
2021/05/18 05:46:41;;;;;;;1.90;1.53;;;;;;;;;;5090728;28;20467;-68
2021/05/18 05:49:07;;;;;;;3.30;1.10;;;;;;;;;;5090208;28;21852;-68
2021/05/18 05:51:33;;;;;;;1.50;0.73;;;;;;;;;;5091717;28;20409;-68
2021/05/18 05:53:59;;;;;;;2.60;1.07;;;;;;;;;;5092348;28;20403;-68
2021/05/18 05:56:26;;;;;;;3.10;1.27;;;;;;;;;;5091965;28;20936;-68
2021/05/18 05:58:52;;;;;;;1.70;1.60;;;;;;;;;;5081137;28;20388;-68
2021/05/18 06:01:18;;;;;;;2.40;1.50;;;;;;;;;;5088976;28;20403;-68
2021/05/18 06:03:45;;;;;;;1.53;1.03;;;;;;;;;;5088986;28;20424;-67
2021/05/18 06:06:11;;;;;;;2.87;1.40;;;;;;;;;;5091541;28;20510;-67
2021/05/18 06:08:42;;;;;;;1.90;1.00;;;;;;;;;;5090628;28;20782;-68
2021/05/18 06:11:33;;;;;;;2.30;2.10;;;;;;;;;;5091142;28;20593;-69
2021/05/18 06:14:45;;;;;;;2.93;1.27;;;;;;;;;;5088919;28;20445;-68
2021/05/18 06:49:20;;;;;;;1.30;0.93;;;;;;;;;;5086154;28;20387;-68
2021/05/18 06:51:45;;;;;;;1.43;1.03;;;;;;;;;;5091094;28;20371;-67
2021/05/18 06:54:11;;;;;;;1.40;0.70;;;;;;;;;;5090948;28;20961;-70
2021/05/18 06:56:39;;;;;;;1.07;0.70;;;;;;;;;;5089740;28;20408;-69
2021/05/18 07:01:31;;;;;;;1.13;1.00;;;;;;;;;;5088899;28;20421;-68
2021/05/18 07:04:01;;;;;;;2.13;1.70;;;;;;;;;;5090649;28;20404;-68
2021/05/18 07:07:13;;;;;;;1.10;0.90;;;;;;;;;;5090754;28;21037;-68
2021/05/18 07:09:16;;;;;;;1.77;1.10;;;;;;;;;;5079660;28;20470;-69
2021/05/18 07:11:42;;;;;;;1.17;1.07;;;;;;;;;;5090046;28;20498;-69
2021/05/18 07:14:08;;;;;;;1.57;1.10;;;;;;;;;;5089701;28;20436;-68
2021/05/18 07:16:35;;;;;;;3.27;1.33;;;;;;;;;;5090923;28;21140;-68
2021/05/18 07:19:01;;;;;;;1.23;0.97;;;;;;;;;;5090637;28;20376;-68
2021/05/18 07:21:27;;;;;;;5.23;1.30;;;;;;;;;;5088575;28;20395;-69
2021/05/18 07:23:53;;;;;;;3.07;1.47;;;;;;;;;;5088522;28;20388;-67
2021/05/18 07:26:19;;;;;;;4.97;1.20;;;;;;;;;;5088576;28;20422;-67
2021/05/18 07:28:45;;;;;;;1.33;0.90;;;;;;;;;;5089920;28;20426;-71
2021/05/18 07:31:12;;;;;;;2.30;1.23;;;;;;;;;;5089252;28;20810;-68
2021/05/18 07:33:38;;;;;;;5.93;1.90;;;;;;;;;;5086771;28;20497;-68
2021/05/18 07:36:10;;;;;;;2.87;1.30;;;;;;;;;;5089163;28;20797;-68
2021/05/18 07:38:39;;;;;;;1.73;1.53;;;;;;;;;;5088468;28;20414;-68
2021/05/18 07:41:05;;;;;;;1.93;1.40;;;;;;;;;;5089258;28;20842;-68
2021/05/18 07:43:31;;;;;;;1.00;0.70;;;;;;;;;;5088636;28;20443;-69
2021/05/18 07:45:59;;;;;;;5.50;2.53;;;;;;;;;;5088746;28;20437;-68
2021/05/18 07:59:15;;;;;;;1.87;1.40;;;;;;;;;;5088587;28;20466;-68
2021/05/18 07:59:34;;;;;;;1.07;0.97;;;;;;;;;;5088400;28;20422;-69
2021/05/18 08:07:33;;;;;;;1.87;1.10;;;;;;;;;;5088113;28;20421;-69
2021/05/18 08:10:18;;;;;;;1.73;1.63;;;;;;;;;;5086387;28;20467;-70
2021/05/18 08:12:45;;;;;;;2.90;0.90;;;;;;;;;;5081861;28;20409;-69
2021/05/18 08:18:18;;;;;;;2.20;1.17;;;;;;;;;;5089119;28;20466;-70
2021/05/18 08:49:08;;;;;;;1.73;1.63;;;;;;;;;;5089476;28;20412;-70
2021/05/18 10:36:04;;;;;;;30.85;27.65;;;;;;;;;;5088790;28;20310;-70
2021/05/18 10:38:34;;;;;;;30.90;27.80;;;;;;;;;;5088807;28;20187;-69
2021/05/18 10:41:06;;;;;;;30.88;27.70;;;;;;;;;;5087326;28;20195;-69
2021/05/18 10:43:39;;;;;;;32.85;29.52;;;;;;;;;;5089102;28;20903;-70
2021/05/18 10:46:07;;;;;;;31.02;27.85;;;;;;;;;;5072270;28;20231;-69
2021/05/18 10:48:35;;;;;;;31.10;28.00;;;;;;;;;;5091435;28;20156;-69
2021/05/18 10:51:17;;;;;;;29.25;26.38;;;;;;;;;;5070581;28;20172;-70
2021/05/18 10:54:03;;;;;;;31.25;28.35;;;;;;;;;;5091444;28;20664;-70
2021/05/18 10:56:28;;;;;;;31.83;28.52;;;;;;;;;;5091094;28;20690;-69
2021/05/18 10:58:54;;;;;;;29.13;26.33;;;;;;;;;;5090803;28;20254;-69
2021/05/18 11:01:20;;;;;;;34.93;31.70;;;;;;;;;;5090363;28;20433;-68
2021/05/18 11:03:47;;;;;;;27.90;25.20;;;;;;;;;;5091005;28;20405;-69
2021/05/18 11:06:13;;;;;;;29.13;26.42;;;;;;;;;;5091002;28;20510;-68
2021/05/18 11:08:39;;;;;;;29.23;26.53;;;;;;;;;;5090872;28;20579;-68
2021/05/18 11:11:05;;;;;;;32.67;29.77;;;;;;;;;;5089801;28;20397;-69
2021/05/18 11:13:31;;;;;;;32.33;29.33;;;;;;;;;;5090276;28;20418;-68
2021/05/18 11:15:58;;;;;;;32.35;29.35;;;;;;;;;;5072411;28;20650;-68
2021/05/18 11:18:31;;;;;;;34.33;30.88;;;;;;;;;;5089955;28;20171;-70
2021/05/18 11:21:04;;;;;;;30.98;27.80;;;;;;;;;;5087447;28;20156;-69
2021/05/18 11:23:31;;;;;;;33.00;29.65;;;;;;;;;;5090322;28;20171;-68
2021/05/18 11:26:03;;;;;;;28.92;26.13;;;;;;;;;;5090637;28;20184;-69
2021/05/18 11:28:33;;;;;;;29.98;27.05;;;;;;;;;;5089915;28;20318;-70
2021/05/18 11:31:01;;;;;;;28.48;25.83;;;;;;;;;;5071422;28;20167;-68
2021/05/18 11:33:31;;;;;;;33.85;30.55;;;;;;;;;;5089582;28;20163;-69
2021/05/18 11:36:08;;;;;;;28.00;25.42;;;;;;;;;;5072419;28;20203;-68
2021/05/18 11:38:34;;;;;;;29.08;26.48;;;;;;;;;;5089812;28;22145;-69
2021/05/18 11:41:01;;;;;;;27.33;24.92;;;;;;;;;;5086984;28;20580;-69
2021/05/18 11:43:35;;;;;;;29.33;26.73;;;;;;;;;;5071466;28;20570;-69
2021/05/18 11:46:06;;;;;;;28.27;25.77;;;;;;;;;;5089377;28;20195;-70
2021/05/18 11:48:32;;;;;;;28.75;26.15;;;;;;;;;;5089538;28;20159;-71
2021/05/18 11:51:03;;;;;;;25.90;23.50;;;;;;;;;;5087365;28;20174;-68
2021/05/18 11:53:30;;;;;;;33.88;30.70;;;;;;;;;;5072300;28;20175;-69
2021/05/18 11:55:57;;;;;;;28.38;25.27;;;;;;;;;;5089517;28;20187;-70
2021/05/18 11:58:23;;;;;;;29.20;26.40;;;;;;;;;;5070082;28;20268;-69
2021/05/18 12:00:49;;;;;;;27.27;25.08;;;;;;;;;;5088318;28;20172;-69
2021/05/18 12:03:15;;;;;;;23.93;21.83;;;;;;;;;;5086251;28;20588;-71
2021/05/18 12:05:57;;;;;;;22.87;20.97;;;;;;;;;;5088744;28;20445;-70
2021/05/18 12:08:26;;;;;;;26.40;24.10;;;;;;;;;;5089192;28;20432;-71
2021/05/18 12:10:52;;;;;;;23.45;21.45;;;;;;;;;;5088440;28;20189;-69
2021/05/18 12:13:31;;;;;;;25.37;23.27;;;;;;;;;;5089168;28;20164;-70
2021/05/18 12:16:04;;;;;;;25.38;23.10;;;;;;;;;;5088666;28;20432;-69
2021/05/18 12:18:35;;;;;;;25.60;23.30;;;;;;;;;;5070648;28;20624;-69
2021/05/18 12:21:14;;;;;;;24.70;22.52;;;;;;;;;;5088205;28;20767;-72
2021/05/18 12:23:41;;;;;;;24.75;22.55;;;;;;;;;;5089038;28;20187;-70
2021/05/18 12:26:11;;;;;;;24.13;22.00;;;;;;;;;;5089003;28;20730;-69
2021/05/18 12:28:37;;;;;;;24.77;22.58;;;;;;;;;;5088684;28;20174;-69
2021/05/18 12:31:03;;;;;;;25.10;22.90;;;;;;;;;;5090107;28;20199;-69
2021/05/18 12:33:36;;;;;;;27.90;25.50;;;;;;;;;;5088498;28;20164;-68
2021/05/18 12:36:06;;;;;;;26.17;23.98;;;;;;;;;;5088607;28;20183;-70
2021/05/18 12:38:32;;;;;;;25.75;23.55;;;;;;;;;;5068901;28;20182;-68
2021/05/18 12:41:05;;;;;;;23.77;21.77;;;;;;;;;;5087617;28;20170;-69
2021/05/18 12:43:38;;;;;;;24.75;22.65;;;;;;;;;;5088714;28;20171;-69
2021/05/18 12:46:11;;;;;;;23.63;21.63;;;;;;;;;;5083093;28;20755;-68
2021/05/18 12:48:47;;;;;;;23.40;21.42;;;;;;;;;;5090899;28;20599;-68
2021/05/18 12:51:21;;;;;;;23.38;21.42;;;;;;;;;;5089694;28;20163;-69
2021/05/18 12:53:47;;;;;;;23.23;21.27;;;;;;;;;;5093554;28;20178;-69
2021/05/18 12:56:27;;;;;;;23.37;21.40;;;;;;;;;;5074540;28;20195;-69
2021/05/18 12:59:02;;;;;;;23.98;21.98;;;;;;;;;;5086561;28;20409;-69
2021/05/18 13:01:28;;;;;;;24.17;22.17;;;;;;;;;;5092254;28;20642;-69
2021/05/18 13:04:08;;;;;;;22.83;20.93;;;;;;;;;;5090406;28;20171;-69
2021/05/18 13:06:35;;;;;;;23.40;21.50;;;;;;;;;;5074064;28;20457;-70
2021/05/18 13:09:15;;;;;;;24.02;22.08;;;;;;;;;;5093036;28;20165;-69
2021/05/18 13:14:26;;;;;;;23.38;21.48;;;;;;;;;;5091952;28;20186;-70
2021/05/18 13:16:52;;;;;;;22.77;20.87;;;;;;;;;;5092778;28;20168;-69
2021/05/18 13:19:19;;;;;;;27.57;25.17;;;;;;;;;;5090628;28;20421;-69
2021/05/18 13:21:56;;;;;;;27.25;24.98;;;;;;;;;;5085990;28;20415;-68
2021/05/18 13:26:25;;;;;;;24.92;22.73;;;;;;;;;;5090279;28;20175;-69
2021/05/18 13:27:09;;;;;;;23.45;21.45;;;;;;;;;;5091079;28;20203;-69
2021/05/18 13:29:35;;;;;;;25.35;23.25;;;;;;;;;;5088501;28;20187;-69
2021/05/18 13:32:02;;;;;;;25.20;23.10;;;;;;;;;;5092781;28;20666;-69
2021/05/18 13:34:28;;;;;;;24.95;22.83;;;;;;;;;;5092476;28;20195;-70
2021/05/18 13:36:54;;;;;;;22.90;21.00;;;;;;;;;;5091768;28;20180;-70
2021/05/18 13:39:23;;;;;;;29.33;26.83;;;;;;;;;;5089559;28;20401;-70
2021/05/18 13:41:49;;;;;;;23.90;22.02;;;;;;;;;;5092797;28;20451;-70
2021/05/18 13:44:15;;;;;;;22.42;20.60;;;;;;;;;;5091750;28;20190;-72
2021/05/18 13:46:41;;;;;;;21.65;19.95;;;;;;;;;;5091485;28;20199;-69
2021/05/18 13:49:07;;;;;;;21.70;20.00;;;;;;;;;;5090876;28;20164;-69
2021/05/18 13:51:33;;;;;;;21.70;19.95;;;;;;;;;;5090104;28;20220;-69
2021/05/18 13:53:59;;;;;;;21.70;19.95;;;;;;;;;;5092788;28;20221;-68
2021/05/18 13:56:26;;;;;;;21.77;20.07;;;;;;;;;;5089980;28;20528;-68
2021/05/18 13:58:53;;;;;;;21.50;19.83;;;;;;;;;;5091715;28;20389;-69
2021/05/18 14:01:19;;;;;;;21.48;19.80;;;;;;;;;;5090493;28;20171;-69
2021/05/18 14:03:47;;;;;;;20.83;19.23;;;;;;;;;;5092366;28;20179;-69
2021/05/18 14:06:14;;;;;;;21.90;20.20;;;;;;;;;;5091232;28;20305;-69
2021/05/18 14:08:40;;;;;;;23.63;21.83;;;;;;;;;;5090778;28;20187;-68
2021/05/18 14:11:07;;;;;;;21.73;20.02;;;;;;;;;;5093721;28;20212;-69
2021/05/18 14:13:37;;;;;;;23.77;21.88;;;;;;;;;;5089790;28;20164;-69
2021/05/18 14:16:04;;;;;;;22.70;20.90;;;;;;;;;;5087975;28;20183;-69
2021/05/18 14:18:31;;;;;;;23.65;21.83;;;;;;;;;;5090498;28;20171;-68
2021/05/18 14:20:58;;;;;;;20.50;18.90;;;;;;;;;;5070763;28;20175;-68
2021/05/18 14:23:25;;;;;;;22.38;20.65;;;;;;;;;;5090947;28;20588;-68
2021/05/18 14:25:53;;;;;;;20.23;18.73;;;;;;;;;;5090699;28;20733;-69
2021/05/18 14:28:19;;;;;;;23.08;21.38;;;;;;;;;;5091298;28;20252;-68
2021/05/18 14:30:46;;;;;;;21.60;19.90;;;;;;;;;;5090700;28;20243;-69
2021/05/18 14:33:14;;;;;;;23.67;21.88;;;;;;;;;;5097524;28;20160;-70
2021/05/18 14:35:40;;;;;;;22.20;20.52;;;;;;;;;;5095491;28;20195;-69
2021/05/18 14:38:11;;;;;;;22.57;20.73;;;;;;;;;;5090254;28;20559;-69
2021/05/18 14:40:50;;;;;;;23.30;21.55;;;;;;;;;;5087846;28;20434;-69
2021/05/18 14:54:38;;;;;;;21.52;19.92;;;;;;;;;;5089148;28;21049;-69
2021/05/18 14:57:04;;;;;;;23.65;21.85;;;;;;;;;;5087516;28;20195;-69
2021/05/18 14:59:30;;;;;;;23.63;21.80;;;;;;;;;;5089762;28;20599;-68
2021/05/18 15:01:56;;;;;;;22.40;20.70;;;;;;;;;;5091099;28;20432;-69
2021/05/18 15:04:22;;;;;;;23.17;21.37;;;;;;;;;;5087990;28;20550;-69
2021/05/18 15:06:48;;;;;;;21.98;20.27;;;;;;;;;;5091904;28;20825;-70
2021/05/18 15:09:14;;;;;;;26.27;24.13;;;;;;;;;;5070876;28;20224;-69
2021/05/18 15:11:40;;;;;;;22.13;20.42;;;;;;;;;;5091375;28;20506;-69
2021/05/18 15:14:07;;;;;;;20.93;19.33;;;;;;;;;;5091819;28;20757;-69
2021/05/18 15:16:33;;;;;;;22.67;20.88;;;;;;;;;;5090824;28;20409;-70
2021/05/18 15:19:11;;;;;;;20.92;19.33;;;;;;;;;;5099677;28;20193;-70
2021/05/18 15:21:37;;;;;;;20.42;18.92;;;;;;;;;;5090665;28;20182;-69
2021/05/18 15:24:04;;;;;;;20.85;19.35;;;;;;;;;;5090263;28;20179;-69
2021/05/18 15:26:30;;;;;;;21.80;20.17;;;;;;;;;;5089691;28;20253;-70
2021/05/18 15:28:56;;;;;;;21.40;19.80;;;;;;;;;;5072823;28;20650;-70
2021/05/18 15:31:22;;;;;;;20.20;18.70;;;;;;;;;;5090887;28;20386;-69
2021/05/18 15:33:48;;;;;;;21.35;19.75;;;;;;;;;;5071424;28;20406;-69
2021/05/18 15:36:15;;;;;;;20.13;18.63;;;;;;;;;;5089175;28;20576;-71
2021/05/18 15:38:42;;;;;;;21.25;19.63;;;;;;;;;;5089990;28;20269;-71
2021/05/18 15:41:09;;;;;;;20.58;19.00;;;;;;;;;;5089543;28;20167;-69
2021/05/18 15:43:35;;;;;;;20.52;19.02;;;;;;;;;;5089901;28;20175;-71
2021/05/18 15:46:01;;;;;;;21.77;20.17;;;;;;;;;;5089900;28;20187;-69
2021/05/18 15:48:28;;;;;;;22.42;20.73;;;;;;;;;;5089222;28;20167;-68
2021/05/18 15:50:54;;;;;;;21.98;20.27;;;;;;;;;;5087301;28;20191;-68
2021/05/18 15:53:20;;;;;;;22.88;21.10;;;;;;;;;;5091106;28;20589;-68
2021/05/18 15:55:46;;;;;;;21.70;20.10;;;;;;;;;;5090049;28;20183;-69
2021/05/18 15:58:12;;;;;;;21.20;19.60;;;;;;;;;;5089790;28;20488;-69
2021/05/18 16:00:38;;;;;;;21.83;20.17;;;;;;;;;;5088298;28;20255;-69
2021/05/18 16:03:04;;;;;;;21.47;19.87;;;;;;;;;;5086086;28;20409;-67
2021/05/18 16:05:30;;;;;;;22.77;21.08;;;;;;;;;;5088164;28;21021;-68
2021/05/18 16:08:08;;;;;;;20.83;19.23;;;;;;;;;;5089640;28;20198;-69
2021/05/18 16:10:34;;;;;;;20.75;19.15;;;;;;;;;;5088002;28;20401;-68
2021/05/18 16:13:00;;;;;;;21.10;19.50;;;;;;;;;;5090157;28;20167;-67
2021/05/18 16:15:26;;;;;;;32.20;29.53;;;;;;;;;;5086892;28;20473;-67
2021/05/18 16:17:52;;;;;;;22.17;20.57;;;;;;;;;;5089649;28;20406;-68
2021/05/18 16:20:18;;;;;;;22.90;21.23;;;;;;;;;;5079889;28;20823;-68
2021/05/18 16:22:44;;;;;;;23.33;21.63;;;;;;;;;;5087508;28;20216;-68
2021/05/18 16:25:10;;;;;;;20.25;18.77;;;;;;;;;;5087201;28;20439;-68
2021/05/18 16:27:36;;;;;;;20.15;18.75;;;;;;;;;;5089073;28;20183;-69
2021/05/18 16:30:02;;;;;;;19.77;18.37;;;;;;;;;;5085462;28;20515;-68
2021/05/18 16:32:28;;;;;;;21.33;19.83;;;;;;;;;;5088876;28;20439;-68
2021/05/18 16:34:54;;;;;;;22.80;21.10;;;;;;;;;;5077406;28;20448;-68
2021/05/18 16:37:20;;;;;;;20.33;18.93;;;;;;;;;;5090063;28;20470;-68
2021/05/18 16:39:46;;;;;;;20.77;19.27;;;;;;;;;;5075190;28;20405;-68
2021/05/18 16:42:12;;;;;;;19.92;18.42;;;;;;;;;;5089212;28;20250;-68
2021/05/18 16:44:38;;;;;;;20.57;19.07;;;;;;;;;;5089451;28;20275;-68
2021/05/18 16:47:04;;;;;;;22.00;20.40;;;;;;;;;;5089731;28;21170;-69
2021/05/18 16:49:30;;;;;;;21.90;20.20;;;;;;;;;;5088019;28;20548;-68
2021/05/18 16:51:56;;;;;;;21.13;19.53;;;;;;;;;;5088421;28;20171;-69
2021/05/18 16:54:22;;;;;;;21.97;20.27;;;;;;;;;;5089957;28;20509;-68
2021/05/18 16:56:50;;;;;;;21.80;20.10;;;;;;;;;;5088096;28;20436;-68
2021/05/18 16:59:16;;;;;;;24.17;22.25;;;;;;;;;;5086738;28;20393;-70
2021/05/18 17:01:42;;;;;;;20.97;19.37;;;;;;;;;;5089897;28;20622;-70
2021/05/18 17:04:08;;;;;;;22.02;20.33;;;;;;;;;;5089956;28;20484;-69
2021/05/18 17:06:34;;;;;;;23.37;21.47;;;;;;;;;;5088070;28;20187;-69
2021/05/18 17:09:00;;;;;;;22.58;20.83;;;;;;;;;;5088942;28;20494;-69
2021/05/18 17:11:26;;;;;;;20.70;19.10;;;;;;;;;;5085222;28;20620;-68
2021/05/18 17:13:52;;;;;;;21.10;19.50;;;;;;;;;;5090051;28;20398;-69
2021/05/18 17:16:18;;;;;;;21.10;19.50;;;;;;;;;;5071339;28;20778;-68
2021/05/18 17:18:44;;;;;;;20.80;19.23;;;;;;;;;;5089811;28;20409;-69
2021/05/18 17:21:10;;;;;;;21.33;19.73;;;;;;;;;;5066880;28;20428;-68
2021/05/18 17:23:38;;;;;;;22.07;20.43;;;;;;;;;;5089673;28;21042;-69
2021/05/18 17:26:10;;;;;;;21.15;19.45;;;;;;;;;;5089111;28;20483;-69
2021/05/18 17:28:37;;;;;;;21.05;19.45;;;;;;;;;;5072270;28;20176;-68
2021/05/18 17:31:03;;;;;;;20.25;18.75;;;;;;;;;;5089819;28;20238;-69
2021/05/18 17:33:31;;;;;;;20.20;18.70;;;;;;;;;;5092358;28;20574;-67
2021/05/18 17:35:57;;;;;;;19.92;18.45;;;;;;;;;;5081377;28;20522;-67
2021/05/18 17:38:23;;;;;;;21.90;20.20;;;;;;;;;;5073043;28;20683;-68
2021/05/18 17:40:49;;;;;;;20.60;19.10;;;;;;;;;;5072802;28;20881;-68
2021/05/18 17:43:17;;;;;;;21.43;19.83;;;;;;;;;;5073182;28;20176;-70
2021/05/18 17:45:43;;;;;;;21.90;20.30;;;;;;;;;;5083948;28;20472;-68
2021/05/18 17:48:12;;;;;;;21.53;19.93;;;;;;;;;;5090771;28;20239;-68
2021/05/18 17:50:38;;;;;;;21.75;20.15;;;;;;;;;;5085172;28;20409;-68
2021/05/18 17:53:04;;;;;;;21.85;20.15;;;;;;;;;;5093286;28;20199;-68
2021/05/18 17:55:30;;;;;;;21.50;19.80;;;;;;;;;;5091131;28;20191;-68
2021/05/18 17:57:56;;;;;;;20.52;18.92;;;;;;;;;;5091769;28;20168;-67
2021/05/18 18:00:22;;;;;;;22.13;20.43;;;;;;;;;;5079083;28;20174;-68
2021/05/18 18:02:48;;;;;;;22.38;20.67;;;;;;;;;;5086730;28;20425;-67
2021/05/18 18:05:14;;;;;;;20.73;19.13;;;;;;;;;;5072869;28;20204;-68
2021/05/18 18:07:40;;;;;;;21.05;19.45;;;;;;;;;;5082166;28;20195;-69
2021/05/18 18:10:07;;;;;;;21.13;19.52;;;;;;;;;;5096375;28;20250;-69
2021/05/18 18:12:33;;;;;;;20.83;19.23;;;;;;;;;;5083427;28;20197;-69
2021/05/18 18:14:59;;;;;;;22.08;20.35;;;;;;;;;;5104046;28;20224;-69
2021/05/18 18:17:26;;;;;;;21.63;19.97;;;;;;;;;;5093097;28;20654;-68
2021/05/18 18:19:53;;;;;;;21.27;19.58;;;;;;;;;;5081121;28;20414;-68
2021/05/18 18:22:19;;;;;;;23.33;21.48;;;;;;;;;;5058948;28;20244;-68
2021/05/18 18:24:45;;;;;;;22.63;20.83;;;;;;;;;;5090382;28;20597;-69
2021/05/18 18:27:12;;;;;;;23.23;21.43;;;;;;;;;;5090400;28;20282;-68
2021/05/18 18:29:40;;;;;;;23.35;21.45;;;;;;;;;;5071131;28;20500;-68
2021/05/18 18:32:06;;;;;;;22.30;20.50;;;;;;;;;;5090664;28;20558;-69
2021/05/18 18:34:32;;;;;;;21.73;19.92;;;;;;;;;;5088185;28;20218;-71
2021/05/18 18:37:01;;;;;;;22.60;20.90;;;;;;;;;;5090558;28;20253;-69
2021/05/18 18:39:27;;;;;;;25.67;23.67;;;;;;;;;;5089763;28;20923;-69
2021/05/18 18:41:53;;;;;;;22.52;20.73;;;;;;;;;;5089813;28;20210;-68
2021/05/18 18:44:19;;;;;;;23.53;21.73;;;;;;;;;;5087222;28;20215;-68
2021/05/18 18:46:45;;;;;;;22.30;20.60;;;;;;;;;;5089578;28;20457;-69
2021/05/18 18:49:16;;;;;;;24.60;22.63;;;;;;;;;;5073822;28;20422;-70
2021/05/18 18:51:44;;;;;;;22.92;21.02;;;;;;;;;;5088452;28;20727;-67
2021/05/18 18:54:10;;;;;;;22.52;20.67;;;;;;;;;;5086832;28;20182;-68
2021/05/18 18:56:36;;;;;;;22.55;20.73;;;;;;;;;;5089700;28;20179;-70
2021/05/18 18:59:02;;;;;;;23.83;21.87;;;;;;;;;;5089973;28;20179;-70
2021/05/18 19:02:12;;;;;;;23.35;21.48;;;;;;;;;;5081302;28;20465;-67
2021/05/18 19:04:27;;;;;;;23.00;21.10;;;;;;;;;;5069359;28;20640;-68
2021/05/18 19:14:29;;;;;;;23.15;21.15;;;;;;;;;;5087009;28;20209;-69
2021/05/18 19:16:56;;;;;;;23.27;21.27;;;;;;;;;;5087635;28;20176;-69
2021/05/18 19:19:22;;;;;;;28.38;25.98;;;;;;;;;;5084877;28;20438;-69
2021/05/18 19:21:50;;;;;;;25.70;23.50;;;;;;;;;;5085212;28;20225;-71
2021/05/18 19:24:17;;;;;;;23.58;21.58;;;;;;;;;;5084159;28;20210;-69
2021/05/18 19:26:44;;;;;;;23.02;21.02;;;;;;;;;;5087139;28;20694;-70
2021/05/18 19:29:10;;;;;;;29.20;26.77;;;;;;;;;;5083176;28;20175;-69